sensor_id;sensor_type;location;lat;lon;timestamp;temperature;humidity
46336;DHT22;31365;48.858;8.530;2022-10-16T00:01:44;16.30;99.90
46336;DHT22;31365;48.858;8.530;2022-10-16T00:04:12;16.30;99.90
46336;DHT22;31365;48.858;8.530;2022-10-16T00:06:42;16.30;99.90
46336;DHT22;31365;48.858;8.530;2022-10-16T00:09:11;16.40;99.90
46336;DHT22;31365;48.858;8.530;2022-10-16T00:11:40;16.40;99.90
46336;DHT22;31365;48.858;8.530;2022-10-16T00:14:12;16.40;99.90
46336;DHT22;31365;48.858;8.530;2022-10-16T00:16:42;16.40;99.90
46336;DHT22;31365;48.858;8.530;2022-10-16T00:19:11;16.40;99.90
46336;DHT22;31365;48.858;8.530;2022-10-16T00:21:39;16.50;99.90
46336;DHT22;31365;48.858;8.530;2022-10-16T00:24:10;16.50;99.90
46336;DHT22;31365;48.858;8.530;2022-10-16T00:26:39;16.50;99.90
46336;DHT22;31365;48.858;8.530;2022-10-16T00:29:08;16.50;99.90
46336;DHT22;31365;48.858;8.530;2022-10-16T00:31:37;16.60;99.90
46336;DHT22;31365;48.858;8.530;2022-10-16T00:34:05;16.50;99.90
46336;DHT22;31365;48.858;8.530;2022-10-16T00:36:34;16.50;99.90
46336;DHT22;31365;48.858;8.530;2022-10-16T00:39:03;16.60;99.90
46336;DHT22;31365;48.858;8.530;2022-10-16T00:41:33;16.60;99.90
46336;DHT22;31365;48.858;8.530;2022-10-16T00:44:04;16.50;99.90
46336;DHT22;31365;48.858;8.530;2022-10-16T00:47:17;16.50;99.90
46336;DHT22;31365;48.858;8.530;2022-10-16T00:49:50;16.50;99.90
46336;DHT22;31365;48.858;8.530;2022-10-16T00:52:19;16.50;99.90
46336;DHT22;31365;48.858;8.530;2022-10-16T00:54:49;16.60;99.90
46336;DHT22;31365;48.858;8.530;2022-10-16T00:57:20;16.40;99.90
46336;DHT22;31365;48.858;8.530;2022-10-16T00:59:50;16.40;99.90
46336;DHT22;31365;48.858;8.530;2022-10-16T01:02:19;16.30;99.90
46336;DHT22;31365;48.858;8.530;2022-10-16T01:04:49;16.30;99.90
46336;DHT22;31365;48.858;8.530;2022-10-16T01:07:27;16.30;99.90
46336;DHT22;31365;48.858;8.530;2022-10-16T01:10:10;16.40;99.90
46336;DHT22;31365;48.858;8.530;2022-10-16T01:12:50;16.40;99.90
46336;DHT22;31365;48.858;8.530;2022-10-16T01:15:27;16.40;99.90
46336;DHT22;31365;48.858;8.530;2022-10-16T01:18:05;16.30;99.90
46336;DHT22;31365;48.858;8.530;2022-10-16T01:20:44;16.40;99.90
46336;DHT22;31365;48.858;8.530;2022-10-16T01:23:29;16.40;99.90
46336;DHT22;31365;48.858;8.530;2022-10-16T01:26:30;16.40;99.90
46336;DHT22;31365;48.858;8.530;2022-10-16T01:29:09;16.30;99.90
46336;DHT22;31365;48.858;8.530;2022-10-16T01:31:49;16.30;99.90
46336;DHT22;31365;48.858;8.530;2022-10-16T01:34:28;16.30;99.90
46336;DHT22;31365;48.858;8.530;2022-10-16T01:37:07;16.30;99.90
46336;DHT22;31365;48.858;8.530;2022-10-16T01:39:45;16.20;99.90
46336;DHT22;31365;48.858;8.530;2022-10-16T01:42:20;16.20;99.90
46336;DHT22;31365;48.858;8.530;2022-10-16T01:44:53;16.20;99.90
46336;DHT22;31365;48.858;8.530;2022-10-16T01:47:25;16.10;99.90
46336;DHT22;31365;48.858;8.530;2022-10-16T01:49:57;16.10;99.90
46336;DHT22;31365;48.858;8.530;2022-10-16T01:52:28;16.10;99.90
46336;DHT22;31365;48.858;8.530;2022-10-16T01:54:58;16.10;99.90
46336;DHT22;31365;48.858;8.530;2022-10-16T01:57:31;16.10;99.90
46336;DHT22;31365;48.858;8.530;2022-10-16T02:00:08;16.20;99.90
46336;DHT22;31365;48.858;8.530;2022-10-16T02:02:40;16.10;99.90
46336;DHT22;31365;48.858;8.530;2022-10-16T02:05:16;16.10;99.90
46336;DHT22;31365;48.858;8.530;2022-10-16T02:07:50;16.10;99.90
46336;DHT22;31365;48.858;8.530;2022-10-16T02:10:18;16.10;99.90
46336;DHT22;31365;48.858;8.530;2022-10-16T02:12:50;16.10;99.90
46336;DHT22;31365;48.858;8.530;2022-10-16T02:15:25;16.10;99.90
46336;DHT22;31365;48.858;8.530;2022-10-16T02:17:54;16.20;99.90
46336;DHT22;31365;48.858;8.530;2022-10-16T02:20:25;16.10;99.90
46336;DHT22;31365;48.858;8.530;2022-10-16T02:22:56;16.20;99.90
46336;DHT22;31365;48.858;8.530;2022-10-16T02:25:30;16.10;99.90
46336;DHT22;31365;48.858;8.530;2022-10-16T02:28:06;16.10;99.90
46336;DHT22;31365;48.858;8.530;2022-10-16T02:30:43;16.10;99.90
46336;DHT22;31365;48.858;8.530;2022-10-16T02:33:16;16.10;99.90
46336;DHT22;31365;48.858;8.530;2022-10-16T02:35:48;16.10;99.90
46336;DHT22;31365;48.858;8.530;2022-10-16T02:38:19;16.20;99.90
46336;DHT22;31365;48.858;8.530;2022-10-16T02:40:49;16.10;99.90
46336;DHT22;31365;48.858;8.530;2022-10-16T02:43:18;16.10;99.90
46336;DHT22;31365;48.858;8.530;2022-10-16T02:45:48;16.10;99.90
46336;DHT22;31365;48.858;8.530;2022-10-16T02:48:17;16.10;99.90
46336;DHT22;31365;48.858;8.530;2022-10-16T02:50:45;16.10;99.90
46336;DHT22;31365;48.858;8.530;2022-10-16T02:53:13;16.10;99.90
46336;DHT22;31365;48.858;8.530;2022-10-16T02:55:42;16.00;99.90
46336;DHT22;31365;48.858;8.530;2022-10-16T02:58:10;16.00;99.90
46336;DHT22;31365;48.858;8.530;2022-10-16T03:00:39;16.00;99.90
46336;DHT22;31365;48.858;8.530;2022-10-16T03:03:08;16.00;99.90
46336;DHT22;31365;48.858;8.530;2022-10-16T03:05:37;16.00;99.90
46336;DHT22;31365;48.858;8.530;2022-10-16T03:08:05;16.00;99.90
46336;DHT22;31365;48.858;8.530;2022-10-16T03:10:33;16.00;99.90
46336;DHT22;31365;48.858;8.530;2022-10-16T03:13:01;16.00;99.90
46336;DHT22;31365;48.858;8.530;2022-10-16T03:15:30;15.90;99.90
46336;DHT22;31365;48.858;8.530;2022-10-16T03:17:59;15.90;99.90
46336;DHT22;31365;48.858;8.530;2022-10-16T03:20:29;15.90;99.90
46336;DHT22;31365;48.858;8.530;2022-10-16T03:22:58;15.90;99.90
46336;DHT22;31365;48.858;8.530;2022-10-16T03:25:26;15.90;99.90
46336;DHT22;31365;48.858;8.530;2022-10-16T03:27:54;15.90;99.90
46336;DHT22;31365;48.858;8.530;2022-10-16T03:30:23;15.90;99.90
46336;DHT22;31365;48.858;8.530;2022-10-16T03:32:51;16.00;99.90
46336;DHT22;31365;48.858;8.530;2022-10-16T03:35:21;16.00;99.90
46336;DHT22;31365;48.858;8.530;2022-10-16T03:37:51;15.90;99.90
46336;DHT22;31365;48.858;8.530;2022-10-16T03:40:19;15.90;99.90
46336;DHT22;31365;48.858;8.530;2022-10-16T03:42:48;15.90;99.90
46336;DHT22;31365;48.858;8.530;2022-10-16T03:45:17;15.80;99.90
46336;DHT22;31365;48.858;8.530;2022-10-16T03:47:46;15.80;99.90
46336;DHT22;31365;48.858;8.530;2022-10-16T03:50:14;15.80;99.90
46336;DHT22;31365;48.858;8.530;2022-10-16T03:52:43;15.70;99.90
46336;DHT22;31365;48.858;8.530;2022-10-16T03:55:13;15.70;99.90
46336;DHT22;31365;48.858;8.530;2022-10-16T03:57:46;15.60;99.90
46336;DHT22;31365;48.858;8.530;2022-10-16T04:00:14;15.60;99.90
46336;DHT22;31365;48.858;8.530;2022-10-16T04:02:43;15.60;99.90
46336;DHT22;31365;48.858;8.530;2022-10-16T04:05:17;15.50;99.90
46336;DHT22;31365;48.858;8.530;2022-10-16T04:07:45;15.50;99.90
46336;DHT22;31365;48.858;8.530;2022-10-16T04:10:15;15.50;99.90
46336;DHT22;31365;48.858;8.530;2022-10-16T04:12:43;15.50;99.90
46336;DHT22;31365;48.858;8.530;2022-10-16T04:15:12;15.50;99.90
46336;DHT22;31365;48.858;8.530;2022-10-16T04:17:40;15.40;99.90
46336;DHT22;31365;48.858;8.530;2022-10-16T04:20:09;15.50;99.90
46336;DHT22;31365;48.858;8.530;2022-10-16T04:22:37;15.40;99.90
46336;DHT22;31365;48.858;8.530;2022-10-16T04:25:06;15.40;99.90
46336;DHT22;31365;48.858;8.530;2022-10-16T04:27:36;15.40;99.90
46336;DHT22;31365;48.858;8.530;2022-10-16T04:30:10;15.40;99.90
46336;DHT22;31365;48.858;8.530;2022-10-16T04:32:39;15.30;99.90
46336;DHT22;31365;48.858;8.530;2022-10-16T04:35:08;15.30;99.90
46336;DHT22;31365;48.858;8.530;2022-10-16T04:37:36;15.30;99.90
46336;DHT22;31365;48.858;8.530;2022-10-16T04:40:05;15.30;99.90
46336;DHT22;31365;48.858;8.530;2022-10-16T04:42:36;15.30;99.90
46336;DHT22;31365;48.858;8.530;2022-10-16T04:45:05;15.30;99.90
46336;DHT22;31365;48.858;8.530;2022-10-16T04:47:40;15.30;99.90
46336;DHT22;31365;48.858;8.530;2022-10-16T04:50:09;15.30;99.90
46336;DHT22;31365;48.858;8.530;2022-10-16T04:52:37;15.30;99.90
46336;DHT22;31365;48.858;8.530;2022-10-16T04:55:06;15.30;99.90
46336;DHT22;31365;48.858;8.530;2022-10-16T04:57:37;15.30;99.90
46336;DHT22;31365;48.858;8.530;2022-10-16T05:00:06;15.30;99.90
46336;DHT22;31365;48.858;8.530;2022-10-16T05:02:36;15.20;99.90
46336;DHT22;31365;48.858;8.530;2022-10-16T05:05:05;15.20;99.90
46336;DHT22;31365;48.858;8.530;2022-10-16T05:07:34;15.30;99.90
46336;DHT22;31365;48.858;8.530;2022-10-16T05:10:03;15.20;99.90
46336;DHT22;31365;48.858;8.530;2022-10-16T05:12:33;15.20;99.90
46336;DHT22;31365;48.858;8.530;2022-10-16T05:15:03;15.20;99.90
46336;DHT22;31365;48.858;8.530;2022-10-16T05:17:33;15.20;99.90
46336;DHT22;31365;48.858;8.530;2022-10-16T05:20:06;15.10;99.90
46336;DHT22;31365;48.858;8.530;2022-10-16T05:22:35;15.20;99.90
46336;DHT22;31365;48.858;8.530;2022-10-16T05:25:04;15.10;99.90
46336;DHT22;31365;48.858;8.530;2022-10-16T05:27:33;15.10;99.90
46336;DHT22;31365;48.858;8.530;2022-10-16T05:30:03;15.10;99.90
46336;DHT22;31365;48.858;8.530;2022-10-16T05:32:35;15.10;99.90
46336;DHT22;31365;48.858;8.530;2022-10-16T05:35:04;15.10;99.90
46336;DHT22;31365;48.858;8.530;2022-10-16T05:37:38;15.10;99.90
46336;DHT22;31365;48.858;8.530;2022-10-16T05:40:08;15.10;99.90
46336;DHT22;31365;48.858;8.530;2022-10-16T05:42:37;15.10;99.90
46336;DHT22;31365;48.858;8.530;2022-10-16T05:45:09;15.00;99.90
46336;DHT22;31365;48.858;8.530;2022-10-16T05:47:38;15.10;99.90
46336;DHT22;31365;48.858;8.530;2022-10-16T05:50:07;15.10;99.90
46336;DHT22;31365;48.858;8.530;2022-10-16T05:52:36;15.10;99.90
46336;DHT22;31365;48.858;8.530;2022-10-16T05:55:10;15.10;99.90
46336;DHT22;31365;48.858;8.530;2022-10-16T05:57:38;15.10;99.90
46336;DHT22;31365;48.858;8.530;2022-10-16T06:00:09;15.10;99.90
46336;DHT22;31365;48.858;8.530;2022-10-16T06:02:41;15.10;99.90
46336;DHT22;31365;48.858;8.530;2022-10-16T06:05:09;15.10;99.90
46336;DHT22;31365;48.858;8.530;2022-10-16T06:07:37;15.10;99.90
46336;DHT22;31365;48.858;8.530;2022-10-16T06:10:07;15.00;99.90
46336;DHT22;31365;48.858;8.530;2022-10-16T06:12:36;15.00;99.90
46336;DHT22;31365;48.858;8.530;2022-10-16T06:15:05;15.00;99.90
46336;DHT22;31365;48.858;8.530;2022-10-16T06:17:35;15.00;99.90
46336;DHT22;31365;48.858;8.530;2022-10-16T06:20:04;15.00;99.90
46336;DHT22;31365;48.858;8.530;2022-10-16T06:22:33;15.00;99.90
46336;DHT22;31365;48.858;8.530;2022-10-16T06:25:01;15.00;99.90
46336;DHT22;31365;48.858;8.530;2022-10-16T06:27:30;14.90;99.90
46336;DHT22;31365;48.858;8.530;2022-10-16T06:29:58;15.00;99.90
46336;DHT22;31365;48.858;8.530;2022-10-16T06:32:27;15.00;99.90
46336;DHT22;31365;48.858;8.530;2022-10-16T06:34:57;15.00;99.90
46336;DHT22;31365;48.858;8.530;2022-10-16T06:37:27;14.90;99.90
46336;DHT22;31365;48.858;8.530;2022-10-16T06:39:55;15.00;99.90
46336;DHT22;31365;48.858;8.530;2022-10-16T06:42:24;15.10;99.90
46336;DHT22;31365;48.858;8.530;2022-10-16T06:44:53;15.10;99.90
46336;DHT22;31365;48.858;8.530;2022-10-16T06:47:21;15.10;99.90
46336;DHT22;31365;48.858;8.530;2022-10-16T06:49:49;15.10;99.90
46336;DHT22;31365;48.858;8.530;2022-10-16T06:52:21;15.10;99.90
46336;DHT22;31365;48.858;8.530;2022-10-16T06:54:50;15.20;99.90
46336;DHT22;31365;48.858;8.530;2022-10-16T06:57:19;15.30;99.90
46336;DHT22;31365;48.858;8.530;2022-10-16T06:59:47;15.30;99.90
46336;DHT22;31365;48.858;8.530;2022-10-16T07:02:20;15.40;99.90
46336;DHT22;31365;48.858;8.530;2022-10-16T07:04:50;15.40;99.90
46336;DHT22;31365;48.858;8.530;2022-10-16T07:07:18;15.40;99.90
46336;DHT22;31365;48.858;8.530;2022-10-16T07:09:48;15.40;99.90
46336;DHT22;31365;48.858;8.530;2022-10-16T07:12:16;15.50;99.90
46336;DHT22;31365;48.858;8.530;2022-10-16T07:14:45;15.60;99.90
46336;DHT22;31365;48.858;8.530;2022-10-16T07:17:13;15.60;99.90
46336;DHT22;31365;48.858;8.530;2022-10-16T07:19:41;15.70;99.90
46336;DHT22;31365;48.858;8.530;2022-10-16T07:22:09;15.80;99.90
46336;DHT22;31365;48.858;8.530;2022-10-16T07:24:38;15.90;99.90
46336;DHT22;31365;48.858;8.530;2022-10-16T07:27:08;16.00;99.90
46336;DHT22;31365;48.858;8.530;2022-10-16T07:29:36;16.10;99.90
46336;DHT22;31365;48.858;8.530;2022-10-16T07:32:05;16.10;99.90
46336;DHT22;31365;48.858;8.530;2022-10-16T07:34:33;16.20;99.90
46336;DHT22;31365;48.858;8.530;2022-10-16T07:37:01;16.40;99.90
46336;DHT22;31365;48.858;8.530;2022-10-16T07:39:30;16.50;99.90
46336;DHT22;31365;48.858;8.530;2022-10-16T07:41:58;16.60;99.90
46336;DHT22;31365;48.858;8.530;2022-10-16T07:44:28;16.90;99.90
46336;DHT22;31365;48.858;8.530;2022-10-16T07:46:56;17.10;99.90
46336;DHT22;31365;48.858;8.530;2022-10-16T07:49:24;17.40;99.90
46336;DHT22;31365;48.858;8.530;2022-10-16T07:51:53;17.50;99.90
46336;DHT22;31365;48.858;8.530;2022-10-16T07:54:21;17.50;99.90
46336;DHT22;31365;48.858;8.530;2022-10-16T07:56:49;17.50;99.90
46336;DHT22;31365;48.858;8.530;2022-10-16T07:59:18;17.50;99.90
46336;DHT22;31365;48.858;8.530;2022-10-16T08:01:48;17.60;99.90
46336;DHT22;31365;48.858;8.530;2022-10-16T08:04:17;17.60;99.90
46336;DHT22;31365;48.858;8.530;2022-10-16T08:06:46;17.60;99.90
46336;DHT22;31365;48.858;8.530;2022-10-16T08:09:15;17.60;99.90
46336;DHT22;31365;48.858;8.530;2022-10-16T08:11:43;17.70;99.90
46336;DHT22;31365;48.858;8.530;2022-10-16T08:14:11;17.70;99.90
46336;DHT22;31365;48.858;8.530;2022-10-16T08:16:39;17.70;99.90
46336;DHT22;31365;48.858;8.530;2022-10-16T08:19:09;17.80;99.90
46336;DHT22;31365;48.858;8.530;2022-10-16T08:21:38;17.90;99.90
46336;DHT22;31365;48.858;8.530;2022-10-16T08:24:06;18.00;99.90
46336;DHT22;31365;48.858;8.530;2022-10-16T08:26:35;18.00;99.90
46336;DHT22;31365;48.858;8.530;2022-10-16T08:29:03;18.00;99.90
46336;DHT22;31365;48.858;8.530;2022-10-16T08:31:31;18.00;99.90
46336;DHT22;31365;48.858;8.530;2022-10-16T08:34:00;18.10;99.90
46336;DHT22;31365;48.858;8.530;2022-10-16T08:36:30;18.20;99.90
46336;DHT22;31365;48.858;8.530;2022-10-16T08:38:58;18.30;99.90
46336;DHT22;31365;48.858;8.530;2022-10-16T08:42:02;18.40;99.90
46336;DHT22;31365;48.858;8.530;2022-10-16T08:45:02;18.50;99.90
46336;DHT22;31365;48.858;8.530;2022-10-16T08:47:49;18.50;99.90
46336;DHT22;31365;48.858;8.530;2022-10-16T08:50:30;18.60;99.90
46336;DHT22;31365;48.858;8.530;2022-10-16T08:53:04;18.60;99.90
46336;DHT22;31365;48.858;8.530;2022-10-16T08:55:38;18.70;99.90
46336;DHT22;31365;48.858;8.530;2022-10-16T08:58:13;18.60;99.90
46336;DHT22;31365;48.858;8.530;2022-10-16T09:00:44;18.80;99.90
46336;DHT22;31365;48.858;8.530;2022-10-16T09:03:23;18.80;99.90
46336;DHT22;31365;48.858;8.530;2022-10-16T09:06:09;19.00;99.90
46336;DHT22;31365;48.858;8.530;2022-10-16T09:08:55;19.10;99.90
46336;DHT22;31365;48.858;8.530;2022-10-16T09:11:40;19.30;99.90
46336;DHT22;31365;48.858;8.530;2022-10-16T09:14:29;19.60;99.90
46336;DHT22;31365;48.858;8.530;2022-10-16T09:17:22;19.60;99.90
46336;DHT22;31365;48.858;8.530;2022-10-16T09:20:17;20.00;99.90
46336;DHT22;31365;48.858;8.530;2022-10-16T09:22:55;20.20;99.90
46336;DHT22;31365;48.858;8.530;2022-10-16T09:25:41;20.30;99.90
46336;DHT22;31365;48.858;8.530;2022-10-16T09:28:12;20.40;99.90
46336;DHT22;31365;48.858;8.530;2022-10-16T09:30:40;20.50;99.90
46336;DHT22;31365;48.858;8.530;2022-10-16T09:33:09;20.70;99.90
46336;DHT22;31365;48.858;8.530;2022-10-16T09:35:40;20.70;99.90
46336;DHT22;31365;48.858;8.530;2022-10-16T09:38:21;20.80;99.90
46336;DHT22;31365;48.858;8.530;2022-10-16T09:40:53;20.90;99.90
46336;DHT22;31365;48.858;8.530;2022-10-16T09:43:33;21.00;99.90
46336;DHT22;31365;48.858;8.530;2022-10-16T09:46:08;21.10;99.90
46336;DHT22;31365;48.858;8.530;2022-10-16T09:48:50;21.10;99.90
46336;DHT22;31365;48.858;8.530;2022-10-16T09:51:23;21.20;99.90
46336;DHT22;31365;48.858;8.530;2022-10-16T09:53:59;21.10;99.90
46336;DHT22;31365;48.858;8.530;2022-10-16T09:56:31;21.10;99.90
46336;DHT22;31365;48.858;8.530;2022-10-16T09:59:10;21.10;99.90
46336;DHT22;31365;48.858;8.530;2022-10-16T10:01:43;21.20;99.90
46336;DHT22;31365;48.858;8.530;2022-10-16T10:04:14;21.20;99.90
46336;DHT22;31365;48.858;8.530;2022-10-16T10:06:44;21.20;99.90
46336;DHT22;31365;48.858;8.530;2022-10-16T10:09:17;21.30;99.90
46336;DHT22;31365;48.858;8.530;2022-10-16T10:11:52;21.40;99.90
46336;DHT22;31365;48.858;8.530;2022-10-16T10:14:27;21.40;99.90
46336;DHT22;31365;48.858;8.530;2022-10-16T10:17:15;21.50;99.90
46336;DHT22;31365;48.858;8.530;2022-10-16T10:19:49;21.60;99.90
46336;DHT22;31365;48.858;8.530;2022-10-16T10:22:23;21.70;99.90
46336;DHT22;31365;48.858;8.530;2022-10-16T10:27:58;21.70;99.90
46336;DHT22;31365;48.858;8.530;2022-10-16T10:30:39;21.80;99.90
46336;DHT22;31365;48.858;8.530;2022-10-16T10:33:20;21.90;99.90
46336;DHT22;31365;48.858;8.530;2022-10-16T10:36:04;21.90;99.90
46336;DHT22;31365;48.858;8.530;2022-10-16T10:38:46;22.00;99.90
46336;DHT22;31365;48.858;8.530;2022-10-16T10:44:51;23.10;99.90
46336;DHT22;31365;48.858;8.530;2022-10-16T10:47:35;24.00;99.90
46336;DHT22;31365;48.858;8.530;2022-10-16T10:50:22;24.20;99.90
46336;DHT22;31365;48.858;8.530;2022-10-16T10:52:59;24.30;99.90
46336;DHT22;31365;48.858;8.530;2022-10-16T10:55:40;24.40;99.90
46336;DHT22;31365;48.858;8.530;2022-10-16T10:58:40;24.40;99.90
46336;DHT22;31365;48.858;8.530;2022-10-16T11:01:30;24.20;99.90
46336;DHT22;31365;48.858;8.530;2022-10-16T11:04:38;24.10;99.90
46336;DHT22;31365;48.858;8.530;2022-10-16T11:07:31;24.00;99.90
46336;DHT22;31365;48.858;8.530;2022-10-16T11:10:08;23.90;99.90
46336;DHT22;31365;48.858;8.530;2022-10-16T11:12:44;23.70;99.90
46336;DHT22;31365;48.858;8.530;2022-10-16T11:15:19;23.60;99.90
46336;DHT22;31365;48.858;8.530;2022-10-16T11:17:58;23.40;99.90
46336;DHT22;31365;48.858;8.530;2022-10-16T11:20:37;23.40;99.90
46336;DHT22;31365;48.858;8.530;2022-10-16T11:23:14;23.50;99.90
46336;DHT22;31365;48.858;8.530;2022-10-16T11:25:47;23.60;99.90
46336;DHT22;31365;48.858;8.530;2022-10-16T11:28:20;24.00;99.90
46336;DHT22;31365;48.858;8.530;2022-10-16T11:31:00;24.40;99.90
46336;DHT22;31365;48.858;8.530;2022-10-16T11:33:39;24.70;99.90
46336;DHT22;31365;48.858;8.530;2022-10-16T11:36:15;25.40;99.90
46336;DHT22;31365;48.858;8.530;2022-10-16T11:38:52;26.00;99.90
46336;DHT22;31365;48.858;8.530;2022-10-16T11:41:29;26.40;99.90
46336;DHT22;31365;48.858;8.530;2022-10-16T11:44:23;26.40;99.90
46336;DHT22;31365;48.858;8.530;2022-10-16T11:47:13;26.30;99.90
46336;DHT22;31365;48.858;8.530;2022-10-16T11:50:21;26.10;99.90
46336;DHT22;31365;48.858;8.530;2022-10-16T11:52:57;25.90;99.90
46336;DHT22;31365;48.858;8.530;2022-10-16T11:55:34;25.80;99.90
46336;DHT22;31365;48.858;8.530;2022-10-16T11:58:22;26.00;99.90
46336;DHT22;31365;48.858;8.530;2022-10-16T12:00:59;26.20;99.90
46336;DHT22;31365;48.858;8.530;2022-10-16T12:03:42;26.10;99.90
46336;DHT22;31365;48.858;8.530;2022-10-16T12:06:29;25.60;99.90
46336;DHT22;31365;48.858;8.530;2022-10-16T12:09:02;25.30;99.90
46336;DHT22;31365;48.858;8.530;2022-10-16T12:11:34;25.00;99.90
46336;DHT22;31365;48.858;8.530;2022-10-16T12:14:07;24.70;99.90
46336;DHT22;31365;48.858;8.530;2022-10-16T12:16:52;24.30;99.90
46336;DHT22;31365;48.858;8.530;2022-10-16T12:19:23;24.20;99.90
46336;DHT22;31365;48.858;8.530;2022-10-16T12:21:56;24.10;99.90
46336;DHT22;31365;48.858;8.530;2022-10-16T12:24:37;24.00;99.90
46336;DHT22;31365;48.858;8.530;2022-10-16T12:27:27;23.80;99.90
46336;DHT22;31365;48.858;8.530;2022-10-16T12:30:00;23.70;99.90
46336;DHT22;31365;48.858;8.530;2022-10-16T12:32:32;23.60;99.90
46336;DHT22;31365;48.858;8.530;2022-10-16T12:35:20;23.40;99.90
46336;DHT22;31365;48.858;8.530;2022-10-16T12:37:52;23.20;99.90
46336;DHT22;31365;48.858;8.530;2022-10-16T12:40:27;23.00;99.90
46336;DHT22;31365;48.858;8.530;2022-10-16T12:42:58;22.90;99.90
46336;DHT22;31365;48.858;8.530;2022-10-16T12:45:29;22.80;99.90
46336;DHT22;31365;48.858;8.530;2022-10-16T12:47:59;22.70;99.90
46336;DHT22;31365;48.858;8.530;2022-10-16T12:50:33;22.70;99.90
46336;DHT22;31365;48.858;8.530;2022-10-16T12:53:18;22.60;99.90
46336;DHT22;31365;48.858;8.530;2022-10-16T12:55:57;22.60;99.90
46336;DHT22;31365;48.858;8.530;2022-10-16T13:01:42;22.90;99.90
46336;DHT22;31365;48.858;8.530;2022-10-16T13:04:36;23.30;99.90
46336;DHT22;31365;48.858;8.530;2022-10-16T13:07:38;23.30;99.90
46336;DHT22;31365;48.858;8.530;2022-10-16T13:10:23;23.20;99.90
46336;DHT22;31365;48.858;8.530;2022-10-16T13:13:09;23.20;99.90
46336;DHT22;31365;48.858;8.530;2022-10-16T13:15:58;23.00;99.90
46336;DHT22;31365;48.858;8.530;2022-10-16T13:18:46;23.00;99.90
46336;DHT22;31365;48.858;8.530;2022-10-16T13:21:32;22.80;99.90
46336;DHT22;31365;48.858;8.530;2022-10-16T13:24:16;22.60;99.90
46336;DHT22;31365;48.858;8.530;2022-10-16T13:26:59;22.50;99.90
46336;DHT22;31365;48.858;8.530;2022-10-16T13:29:35;22.40;99.90
46336;DHT22;31365;48.858;8.530;2022-10-16T13:32:09;22.30;99.90
46336;DHT22;31365;48.858;8.530;2022-10-16T13:34:44;22.20;99.90
46336;DHT22;31365;48.858;8.530;2022-10-16T13:37:18;22.10;99.90
46336;DHT22;31365;48.858;8.530;2022-10-16T13:39:49;22.40;99.90
46336;DHT22;31365;48.858;8.530;2022-10-16T13:42:26;22.60;99.90
46336;DHT22;31365;48.858;8.530;2022-10-16T13:44:56;23.20;99.90
46336;DHT22;31365;48.858;8.530;2022-10-16T13:47:25;23.40;99.90
46336;DHT22;31365;48.858;8.530;2022-10-16T13:50:00;23.30;99.90
46336;DHT22;31365;48.858;8.530;2022-10-16T13:52:30;23.10;99.90
46336;DHT22;31365;48.858;8.530;2022-10-16T13:54:58;22.90;99.90
46336;DHT22;31365;48.858;8.530;2022-10-16T13:57:30;22.70;99.90
46336;DHT22;31365;48.858;8.530;2022-10-16T13:59:58;22.50;99.90
46336;DHT22;31365;48.858;8.530;2022-10-16T14:02:29;22.30;99.90
46336;DHT22;31365;48.858;8.530;2022-10-16T14:05:02;22.10;99.90
46336;DHT22;31365;48.858;8.530;2022-10-16T14:07:33;22.10;99.90
46336;DHT22;31365;48.858;8.530;2022-10-16T14:10:05;22.10;99.90
46336;DHT22;31365;48.858;8.530;2022-10-16T14:12:36;22.00;99.90
46336;DHT22;31365;48.858;8.530;2022-10-16T14:15:15;21.80;99.90
46336;DHT22;31365;48.858;8.530;2022-10-16T14:17:48;21.80;99.90
46336;DHT22;31365;48.858;8.530;2022-10-16T14:20:23;21.70;99.90
46336;DHT22;31365;48.858;8.530;2022-10-16T14:23:02;21.80;99.90
46336;DHT22;31365;48.858;8.530;2022-10-16T14:25:32;21.90;99.90
46336;DHT22;31365;48.858;8.530;2022-10-16T14:28:13;22.10;99.90
46336;DHT22;31365;48.858;8.530;2022-10-16T14:30:52;22.30;99.90
46336;DHT22;31365;48.858;8.530;2022-10-16T14:33:24;22.40;99.90
46336;DHT22;31365;48.858;8.530;2022-10-16T14:36:03;22.40;99.90
46336;DHT22;31365;48.858;8.530;2022-10-16T14:38:33;22.40;99.90
46336;DHT22;31365;48.858;8.530;2022-10-16T14:41:03;22.30;99.90
46336;DHT22;31365;48.858;8.530;2022-10-16T14:43:36;22.30;99.90
46336;DHT22;31365;48.858;8.530;2022-10-16T14:46:11;22.20;99.90
46336;DHT22;31365;48.858;8.530;2022-10-16T14:48:43;22.10;99.90
46336;DHT22;31365;48.858;8.530;2022-10-16T14:51:15;22.00;99.90
46336;DHT22;31365;48.858;8.530;2022-10-16T14:53:44;22.00;99.90
46336;DHT22;31365;48.858;8.530;2022-10-16T14:56:17;22.00;99.90
46336;DHT22;31365;48.858;8.530;2022-10-16T14:58:50;22.00;99.90
46336;DHT22;31365;48.858;8.530;2022-10-16T15:01:20;21.90;99.90
46336;DHT22;31365;48.858;8.530;2022-10-16T15:03:48;21.80;99.90
46336;DHT22;31365;48.858;8.530;2022-10-16T15:06:19;21.70;99.90
46336;DHT22;31365;48.858;8.530;2022-10-16T15:08:47;21.70;99.90
46336;DHT22;31365;48.858;8.530;2022-10-16T15:11:17;21.70;99.90
46336;DHT22;31365;48.858;8.530;2022-10-16T15:13:49;21.60;99.90
46336;DHT22;31365;48.858;8.530;2022-10-16T15:16:17;21.70;99.90
46336;DHT22;31365;48.858;8.530;2022-10-16T15:18:46;21.60;99.90
46336;DHT22;31365;48.858;8.530;2022-10-16T15:21:23;21.60;99.90
46336;DHT22;31365;48.858;8.530;2022-10-16T15:23:53;21.60;99.90
46336;DHT22;31365;48.858;8.530;2022-10-16T15:26:23;21.60;99.90
46336;DHT22;31365;48.858;8.530;2022-10-16T15:28:54;21.60;99.90
46336;DHT22;31365;48.858;8.530;2022-10-16T15:31:23;21.50;99.90
46336;DHT22;31365;48.858;8.530;2022-10-16T15:33:53;21.40;99.90
46336;DHT22;31365;48.858;8.530;2022-10-16T15:36:26;21.40;99.90
46336;DHT22;31365;48.858;8.530;2022-10-16T15:38:55;21.30;99.90
46336;DHT22;31365;48.858;8.530;2022-10-16T15:41:24;21.20;99.90
46336;DHT22;31365;48.858;8.530;2022-10-16T15:43:55;21.20;99.90
46336;DHT22;31365;48.858;8.530;2022-10-16T15:46:25;21.10;99.90
46336;DHT22;31365;48.858;8.530;2022-10-16T15:48:56;21.00;99.90
46336;DHT22;31365;48.858;8.530;2022-10-16T15:51:27;20.80;99.90
46336;DHT22;31365;48.858;8.530;2022-10-16T15:53:56;20.80;99.90
46336;DHT22;31365;48.858;8.530;2022-10-16T15:56:25;20.60;99.90
46336;DHT22;31365;48.858;8.530;2022-10-16T15:58:56;20.50;99.90
46336;DHT22;31365;48.858;8.530;2022-10-16T16:01:25;20.40;99.90
46336;DHT22;31365;48.858;8.530;2022-10-16T16:03:54;20.30;99.90
46336;DHT22;31365;48.858;8.530;2022-10-16T16:06:23;20.30;99.90
46336;DHT22;31365;48.858;8.530;2022-10-16T16:08:51;20.20;99.90
46336;DHT22;31365;48.858;8.530;2022-10-16T16:11:21;20.20;99.90
46336;DHT22;31365;48.858;8.530;2022-10-16T16:13:50;20.00;99.90
46336;DHT22;31365;48.858;8.530;2022-10-16T16:16:20;20.00;99.90
46336;DHT22;31365;48.858;8.530;2022-10-16T16:18:52;19.90;99.90